This demonstration page uses our WeatherBlox Daily Observations layout. Learn more.

Left ArrowRight Arrow

38.80484, -77.04692

Hourly Observations for November 2, 2020

Temp ( °F °C ) Dew Point ( °F °C ) Humidity (%) Winds ( mph kmh ) Pressure ( in mb ) Visibility ( mi km ) Precip ( " mm )
12:52 am 00:52 Mostly Clear 41 5 19 -7.2 41 41 WNW 15 24 30 1016 10 16.0934 0 0
1:52 am 01:52 Mostly Clear 40 4.4 21 -6.1 47 47 WNW 17 28 30.01 1016 10 16.0934 0 0
2:52 am 02:52 Mostly Clear 39 3.9 21 -6.1 48 48 W 14 22 30.01 1016 10 16.0934 0 0
3:52 am 03:52 Partly Cloudy 39 3.9 22 -5.6 50 50 WNW 18 30 30 1016 10 16.0934 0 0
4:52 am 04:52 Mostly Cloudy 40 4.4 22 -5.6 49 49 W 20 31 30.01 1016 10 16.0934 0 0
5:52 am 05:52 Mostly Clear 40 4.4 23 -5 51 51 WNW 20 31 30.03 1017 10 16.0934 0 0
6:52 am 06:52 Mostly Cloudy 41 5 23 -5 49 49 WNW 10 17 30.06 1018 10 16.0934 0 0
7:52 am 07:52 Mostly Cloudy 42 5.6 24 -4.4 49 49 NW 10 17 30.08 1019 10 16.0934 0 0
8:52 am 08:52 Mostly Cloudy 43 6.1 23 -5 45 45 WNW 24 39 30.1 1019 10 16.0934 0 0
9:52 am 09:52 Partly Cloudy 44 6.7 23 -5 43 43 NW 32 52 30.11 1020 10 16.0934 0 0
10:52 am 10:52 Partly Cloudy 45 7.2 21 -6.1 39 39 NW 30 48 30.11 1020 10 16.0934 0 0
11:52 am 11:52 Mostly Sunny 47 8.3 22 -5.6 37 37 WNW 21 33 30.12 1020 10 16.0934 0 0
12:52 pm 12:52 Mostly Sunny 48 8.9 22 -5.6 36 36 NW 22 35 30.11 1020 10 16.0934 0 0
1:52 pm 13:52 Mostly Sunny 50 10 21 -6.1 32 32 W 21 33 30.09 1019 10 16.0934 0 0
2:52 pm 14:52 Mostly Sunny 50 10 20 -6.7 30 30 W 20 31 30.08 1019 10 16.0934 0 0
3:52 pm 15:52 Mostly Sunny 49 9.4 19 -7.2 31 31 WNW 16 26 30.09 1019 10 16.0934 0 0
4:52 pm 16:52 Mostly Sunny 48 8.9 18 -7.8 30 30 W 7 11 30.1 1019 10 16.0934 0 0
5:52 pm 17:52 Mostly Clear 46 7.8 20 -6.7 35 35 SSW 5 7 30.1 1019 10 16.0934 0 0
6:52 pm 18:52 Clear 45 7.2 19 -7.2 35 35 S 6 9 30.11 1020 10 16.0934 0 0
7:52 pm 19:52 Clear 45 7.2 18 -7.8 34 34 S 5 7 30.1 1019 10 16.0934 0 0
8:52 pm 20:52 Clear 43 6.1 20 -6.7 40 40 SSW 6 9 30.09 1019 10 16.0934 0 0
9:52 pm 21:52 Clear 41 5 21 -6.1 45 45 SW 8 13 30.07 1018 10 16.0934 0 0
10:52 pm 22:52 Mostly Clear 43 6.1 20 -6.7 40 40 SW 9 15 30.06 1018 10 16.0934 0 0
11:52 pm 23:52 Partly Cloudy 42 5.6 20 -6.7 41 41 SW 8 13 30.04 1017 10 16.0934 0 0

Powered by AerisWeather